Accueil
METAR-TAF:

METAR-TAF

Aéroports :

Aéroport international L.F. Wade

Bermudes, Bermudes

latitude: 32-22N, longitude: 064-41W, altitude: 6 m

Observation

Le bulletin a été fait il y a 34 minutes, à 05:55 UTC
Vent 15 kt de sud-ouest
Température 26°C
Humidité 79%
Pression 1014 hPa
Visibilité 10 km ou plus
Nuages épars à une hauteur de 1700 ft
Nuages épars à une hauteur de 30000 ft

METAR: TXKF 210555Z 23015KT 9999 SCT017 SCT300 26/22 Q1014

Heure: 03:29 (06:29 UTC)

Prévision

Le bulletin a été fait il y a 58 minutes, à 05:31 UTC
Prévision valable du 21 à 06 UTC au 22 à 06 UTC
Vent 15 kt de sud-ouest
Visibilité 10 km ou plus
Quelques nuages à une hauteur de 1800 ft
Nuages épars à une hauteur de 30000 ft

TAF: TXKF 210531Z 2106/2206 22015KT 9999 FEW018 SCT300

Observations et prévisions météorologiques de plus de 4000 aéroports (messages METAR et TAF).

Les stations disponibles sont représentées par des disques jaunes et rouges sur la carte.

Passer la souris dessus pour voir le nom de la station.

Cliquer dessus pour voir les observations et prévisions météorologiques.

Pour changer de carte: cliquez sur les boutons verts avec une croix noire pour zoomer, sur le bouton vert avec un tiret pour effectuer un zoom arrière, ou sur les flèches vertes pour les cartes adjacentes.


METAR-TAF: